Cartwright, Oklahoma
Current Conditions -  °F | °C
As of 7:15 AM on Saturday 25 Oct 2014 (Local Time) from KGYI Reporting Station
Clear Clear  
Wind Chill: 64°   Ceiling: Unl
Heat Index: 64°   Visibility: 10mi
Dew Point: 60°   Wind: 9mph
Humidity: 86%   Direction: 180°S
Pressure: 30.11"   Gusts: NA
Location:  33.85°N, 96.56°W
Report Text: KGYI 251215Z AUTO 18008KT 10SM CLR 18/16 A3011 RMK AO2 T01800156
Loading
Personal Weather Stations






























Interactive Weather Map
Tropical Storm Tracking
New forecast layout! Learn more

10-Day Weather Forecast

Advertisements
Track Severe Weather on mobile